sensor_id;sensor_type;location;lat;lon;timestamp;temperature;humidity
61896;DHT22;47835;52.778;5.956;2024-03-22T00:01:55;9.90;99.90
61896;DHT22;47835;52.778;5.956;2024-03-22T00:04:22;9.90;99.90
61896;DHT22;47835;52.778;5.956;2024-03-22T00:06:49;9.90;99.90
61896;DHT22;47835;52.778;5.956;2024-03-22T00:09:15;9.90;99.90
61896;DHT22;47835;52.778;5.956;2024-03-22T00:11:41;9.90;99.90
61896;DHT22;47835;52.778;5.956;2024-03-22T00:14:08;9.90;99.90
61896;DHT22;47835;52.778;5.956;2024-03-22T00:16:34;9.90;99.90
61896;DHT22;47835;52.778;5.956;2024-03-22T00:19:00;10.00;99.90
61896;DHT22;47835;52.778;5.956;2024-03-22T00:21:26;10.00;99.90
61896;DHT22;47835;52.778;5.956;2024-03-22T00:23:51;10.00;99.90
61896;DHT22;47835;52.778;5.956;2024-03-22T00:26:17;10.00;99.90
61896;DHT22;47835;52.778;5.956;2024-03-22T00:28:43;10.00;99.90
61896;DHT22;47835;52.778;5.956;2024-03-22T00:31:09;10.00;99.90
61896;DHT22;47835;52.778;5.956;2024-03-22T00:33:35;10.00;99.90
61896;DHT22;47835;52.778;5.956;2024-03-22T00:36:00;10.00;99.90
61896;DHT22;47835;52.778;5.956;2024-03-22T00:38:26;10.00;99.90
61896;DHT22;47835;52.778;5.956;2024-03-22T00:40:51;10.00;99.90
61896;DHT22;47835;52.778;5.956;2024-03-22T00:43:17;10.10;99.90
61896;DHT22;47835;52.778;5.956;2024-03-22T00:45:43;10.10;99.90
61896;DHT22;47835;52.778;5.956;2024-03-22T00:48:08;10.10;99.90
61896;DHT22;47835;52.778;5.956;2024-03-22T00:50:34;10.20;99.90
61896;DHT22;47835;52.778;5.956;2024-03-22T00:53:00;10.10;99.90
61896;DHT22;47835;52.778;5.956;2024-03-22T00:55:27;10.20;99.90
61896;DHT22;47835;52.778;5.956;2024-03-22T00:57:53;10.20;99.90
61896;DHT22;47835;52.778;5.956;2024-03-22T01:00:19;10.20;99.90
61896;DHT22;47835;52.778;5.956;2024-03-22T01:02:44;10.20;99.90
61896;DHT22;47835;52.778;5.956;2024-03-22T01:05:10;10.20;99.90
61896;DHT22;47835;52.778;5.956;2024-03-22T01:07:36;10.20;99.90
61896;DHT22;47835;52.778;5.956;2024-03-22T01:10:03;10.30;99.90
61896;DHT22;47835;52.778;5.956;2024-03-22T01:12:29;10.30;99.90
61896;DHT22;47835;52.778;5.956;2024-03-22T01:14:56;10.30;99.90
61896;DHT22;47835;52.778;5.956;2024-03-22T01:17:22;10.40;99.90
61896;DHT22;47835;52.778;5.956;2024-03-22T01:19:48;10.40;99.90
61896;DHT22;47835;52.778;5.956;2024-03-22T01:22:13;10.30;99.90
61896;DHT22;47835;52.778;5.956;2024-03-22T01:24:39;10.40;99.90
61896;DHT22;47835;52.778;5.956;2024-03-22T01:27:05;10.40;99.90
61896;DHT22;47835;52.778;5.956;2024-03-22T01:29:30;10.40;99.90
61896;DHT22;47835;52.778;5.956;2024-03-22T01:31:58;10.40;99.90
61896;DHT22;47835;52.778;5.956;2024-03-22T01:34:24;10.40;99.90
61896;DHT22;47835;52.778;5.956;2024-03-22T01:36:53;10.40;99.90
61896;DHT22;47835;52.778;5.956;2024-03-22T01:39:20;10.40;99.90
61896;DHT22;47835;52.778;5.956;2024-03-22T01:41:49;10.50;99.90
61896;DHT22;47835;52.778;5.956;2024-03-22T01:44:15;10.40;99.90
61896;DHT22;47835;52.778;5.956;2024-03-22T01:46:41;10.40;99.90
61896;DHT22;47835;52.778;5.956;2024-03-22T01:49:09;10.50;99.90
61896;DHT22;47835;52.778;5.956;2024-03-22T01:51:36;10.40;99.90
61896;DHT22;47835;52.778;5.956;2024-03-22T01:54:02;10.40;99.90
61896;DHT22;47835;52.778;5.956;2024-03-22T01:56:29;10.40;99.90
61896;DHT22;47835;52.778;5.956;2024-03-22T01:58:56;10.40;99.90
61896;DHT22;47835;52.778;5.956;2024-03-22T02:01:23;10.40;99.90
61896;DHT22;47835;52.778;5.956;2024-03-22T02:03:48;10.50;99.90
61896;DHT22;47835;52.778;5.956;2024-03-22T02:06:14;10.50;99.90
61896;DHT22;47835;52.778;5.956;2024-03-22T02:08:40;10.50;99.90
61896;DHT22;47835;52.778;5.956;2024-03-22T02:11:08;10.50;99.90
61896;DHT22;47835;52.778;5.956;2024-03-22T02:13:34;10.60;99.90
61896;DHT22;47835;52.778;5.956;2024-03-22T02:16:03;10.60;99.90
61896;DHT22;47835;52.778;5.956;2024-03-22T02:18:28;10.60;99.90
61896;DHT22;47835;52.778;5.956;2024-03-22T02:20:54;10.60;99.90
61896;DHT22;47835;52.778;5.956;2024-03-22T02:23:44;10.70;99.90
61896;DHT22;47835;52.778;5.956;2024-03-22T02:26:08;10.70;99.90
61896;DHT22;47835;52.778;5.956;2024-03-22T02:28:35;10.70;99.90
61896;DHT22;47835;52.778;5.956;2024-03-22T02:31:02;10.70;99.90
61896;DHT22;47835;52.778;5.956;2024-03-22T02:33:28;10.70;99.90
61896;DHT22;47835;52.778;5.956;2024-03-22T02:35:54;10.80;99.90
61896;DHT22;47835;52.778;5.956;2024-03-22T02:38:19;10.70;99.90
61896;DHT22;47835;52.778;5.956;2024-03-22T02:40:46;10.80;99.90
61896;DHT22;47835;52.778;5.956;2024-03-22T02:43:12;10.80;99.90
61896;DHT22;47835;52.778;5.956;2024-03-22T02:45:38;10.80;99.90
61896;DHT22;47835;52.778;5.956;2024-03-22T02:48:04;10.90;99.90
61896;DHT22;47835;52.778;5.956;2024-03-22T02:50:36;10.90;99.90
61896;DHT22;47835;52.778;5.956;2024-03-22T02:53:03;10.90;99.90
61896;DHT22;47835;52.778;5.956;2024-03-22T02:55:29;10.90;99.90
61896;DHT22;47835;52.778;5.956;2024-03-22T02:57:56;10.80;99.90
61896;DHT22;47835;52.778;5.956;2024-03-22T03:00:22;10.80;99.90
61896;DHT22;47835;52.778;5.956;2024-03-22T03:02:48;10.80;99.90
61896;DHT22;47835;52.778;5.956;2024-03-22T03:05:14;10.80;99.90
61896;DHT22;47835;52.778;5.956;2024-03-22T03:07:39;10.80;99.90
61896;DHT22;47835;52.778;5.956;2024-03-22T03:10:06;10.80;99.90
61896;DHT22;47835;52.778;5.956;2024-03-22T03:12:32;10.70;99.90
61896;DHT22;47835;52.778;5.956;2024-03-22T03:14:57;10.70;99.90
61896;DHT22;47835;52.778;5.956;2024-03-22T03:17:23;10.80;99.90
61896;DHT22;47835;52.778;5.956;2024-03-22T03:19:49;10.80;99.90
61896;DHT22;47835;52.778;5.956;2024-03-22T03:22:14;10.70;99.90
61896;DHT22;47835;52.778;5.956;2024-03-22T03:24:40;10.70;99.90
61896;DHT22;47835;52.778;5.956;2024-03-22T03:27:06;10.70;99.90
61896;DHT22;47835;52.778;5.956;2024-03-22T03:29:32;10.70;99.90
61896;DHT22;47835;52.778;5.956;2024-03-22T03:31:57;10.70;99.90
61896;DHT22;47835;52.778;5.956;2024-03-22T03:34:23;10.70;99.90
61896;DHT22;47835;52.778;5.956;2024-03-22T03:36:48;10.70;99.90
61896;DHT22;47835;52.778;5.956;2024-03-22T03:39:14;10.70;99.90
61896;DHT22;47835;52.778;5.956;2024-03-22T03:41:39;10.60;99.90
61896;DHT22;47835;52.778;5.956;2024-03-22T03:44:05;10.60;99.90
61896;DHT22;47835;52.778;5.956;2024-03-22T03:46:31;10.60;99.90
61896;DHT22;47835;52.778;5.956;2024-03-22T03:48:57;10.60;99.90
61896;DHT22;47835;52.778;5.956;2024-03-22T03:51:22;10.60;99.90
61896;DHT22;47835;52.778;5.956;2024-03-22T03:53:48;10.60;99.90
61896;DHT22;47835;52.778;5.956;2024-03-22T03:56:13;10.60;99.90
61896;DHT22;47835;52.778;5.956;2024-03-22T03:58:39;10.60;99.90
61896;DHT22;47835;52.778;5.956;2024-03-22T04:01:08;10.60;99.90
61896;DHT22;47835;52.778;5.956;2024-03-22T04:03:34;10.60;99.90
61896;DHT22;47835;52.778;5.956;2024-03-22T04:06:00;10.60;99.90
61896;DHT22;47835;52.778;5.956;2024-03-22T04:08:26;10.60;99.90
61896;DHT22;47835;52.778;5.956;2024-03-22T04:10:53;10.60;99.90
61896;DHT22;47835;52.778;5.956;2024-03-22T04:13:19;10.60;99.90
61896;DHT22;47835;52.778;5.956;2024-03-22T04:15:44;10.60;99.90
61896;DHT22;47835;52.778;5.956;2024-03-22T04:18:10;10.60;99.90
61896;DHT22;47835;52.778;5.956;2024-03-22T04:20:35;10.60;99.90
61896;DHT22;47835;52.778;5.956;2024-03-22T04:23:01;10.60;99.90
61896;DHT22;47835;52.778;5.956;2024-03-22T04:25:27;10.50;99.90
61896;DHT22;47835;52.778;5.956;2024-03-22T04:27:53;10.50;99.90
61896;DHT22;47835;52.778;5.956;2024-03-22T04:30:18;10.50;99.90
61896;DHT22;47835;52.778;5.956;2024-03-22T04:32:46;10.50;99.90
61896;DHT22;47835;52.778;5.956;2024-03-22T04:35:12;10.50;99.90
61896;DHT22;47835;52.778;5.956;2024-03-22T04:37:37;10.50;99.90
61896;DHT22;47835;52.778;5.956;2024-03-22T04:40:03;10.50;99.90
61896;DHT22;47835;52.778;5.956;2024-03-22T04:42:29;10.50;99.90
61896;DHT22;47835;52.778;5.956;2024-03-22T04:44:55;10.50;99.90
61896;DHT22;47835;52.778;5.956;2024-03-22T04:47:21;10.50;99.90
61896;DHT22;47835;52.778;5.956;2024-03-22T04:49:46;10.50;99.90
61896;DHT22;47835;52.778;5.956;2024-03-22T04:52:12;10.50;99.90
61896;DHT22;47835;52.778;5.956;2024-03-22T04:54:37;10.40;99.90
61896;DHT22;47835;52.778;5.956;2024-03-22T04:57:03;10.50;99.90
61896;DHT22;47835;52.778;5.956;2024-03-22T04:59:29;10.40;99.90
61896;DHT22;47835;52.778;5.956;2024-03-22T05:01:54;10.40;99.90
61896;DHT22;47835;52.778;5.956;2024-03-22T05:04:20;10.40;99.90
61896;DHT22;47835;52.778;5.956;2024-03-22T05:06:45;10.40;99.90
61896;DHT22;47835;52.778;5.956;2024-03-22T05:09:11;10.40;99.90
61896;DHT22;47835;52.778;5.956;2024-03-22T05:11:37;10.40;99.90
61896;DHT22;47835;52.778;5.956;2024-03-22T05:14:02;10.30;99.90
61896;DHT22;47835;52.778;5.956;2024-03-22T05:16:28;10.30;99.90
61896;DHT22;47835;52.778;5.956;2024-03-22T05:18:54;10.30;99.90
61896;DHT22;47835;52.778;5.956;2024-03-22T05:21:20;10.20;99.90
61896;DHT22;47835;52.778;5.956;2024-03-22T05:23:45;10.30;99.90
61896;DHT22;47835;52.778;5.956;2024-03-22T05:26:11;10.20;99.90
61896;DHT22;47835;52.778;5.956;2024-03-22T05:28:37;10.20;99.90
61896;DHT22;47835;52.778;5.956;2024-03-22T05:31:02;10.30;99.90
61896;DHT22;47835;52.778;5.956;2024-03-22T05:33:28;10.30;99.90
61896;DHT22;47835;52.778;5.956;2024-03-22T05:35:54;10.20;99.90
61896;DHT22;47835;52.778;5.956;2024-03-22T05:38:20;10.20;99.90
61896;DHT22;47835;52.778;5.956;2024-03-22T05:40:46;10.20;99.90
61896;DHT22;47835;52.778;5.956;2024-03-22T05:43:13;10.30;99.90
61896;DHT22;47835;52.778;5.956;2024-03-22T05:45:39;10.30;99.90
61896;DHT22;47835;52.778;5.956;2024-03-22T05:48:05;10.30;99.90
61896;DHT22;47835;52.778;5.956;2024-03-22T05:50:31;10.20;99.90
61896;DHT22;47835;52.778;5.956;2024-03-22T05:52:57;10.30;99.90
61896;DHT22;47835;52.778;5.956;2024-03-22T05:55:22;10.20;99.90
61896;DHT22;47835;52.778;5.956;2024-03-22T05:57:48;10.30;99.90
61896;DHT22;47835;52.778;5.956;2024-03-22T06:00:14;10.20;99.90
61896;DHT22;47835;52.778;5.956;2024-03-22T06:02:40;10.20;99.90
61896;DHT22;47835;52.778;5.956;2024-03-22T06:05:06;10.30;99.90
61896;DHT22;47835;52.778;5.956;2024-03-22T06:07:31;10.20;99.90
61896;DHT22;47835;52.778;5.956;2024-03-22T06:10:06;10.30;99.90
61896;DHT22;47835;52.778;5.956;2024-03-22T06:12:31;10.20;99.90
61896;DHT22;47835;52.778;5.956;2024-03-22T06:14:57;10.30;99.90
61896;DHT22;47835;52.778;5.956;2024-03-22T06:17:23;10.20;99.90
61896;DHT22;47835;52.778;5.956;2024-03-22T06:19:48;10.20;99.90
61896;DHT22;47835;52.778;5.956;2024-03-22T06:22:14;10.30;99.90
61896;DHT22;47835;52.778;5.956;2024-03-22T06:24:39;10.30;99.90
61896;DHT22;47835;52.778;5.956;2024-03-22T06:27:05;10.30;99.90
61896;DHT22;47835;52.778;5.956;2024-03-22T06:29:31;10.30;99.90
61896;DHT22;47835;52.778;5.956;2024-03-22T06:31:57;10.30;99.90
61896;DHT22;47835;52.778;5.956;2024-03-22T06:34:22;10.30;99.90
61896;DHT22;47835;52.778;5.956;2024-03-22T06:36:48;10.30;99.90
61896;DHT22;47835;52.778;5.956;2024-03-22T06:39:13;10.30;99.90
61896;DHT22;47835;52.778;5.956;2024-03-22T06:41:40;10.30;99.90
61896;DHT22;47835;52.778;5.956;2024-03-22T06:44:05;10.30;99.90
61896;DHT22;47835;52.778;5.956;2024-03-22T06:46:31;10.30;99.90
61896;DHT22;47835;52.778;5.956;2024-03-22T06:48:58;10.30;99.90
61896;DHT22;47835;52.778;5.956;2024-03-22T06:51:24;10.30;99.90
61896;DHT22;47835;52.778;5.956;2024-03-22T06:53:49;10.30;99.90
61896;DHT22;47835;52.778;5.956;2024-03-22T06:56:16;10.40;99.90
61896;DHT22;47835;52.778;5.956;2024-03-22T06:58:42;10.40;99.90
61896;DHT22;47835;52.778;5.956;2024-03-22T07:01:08;10.30;99.90
61896;DHT22;47835;52.778;5.956;2024-03-22T07:03:33;10.40;99.90
61896;DHT22;47835;52.778;5.956;2024-03-22T07:05:59;10.40;99.90
61896;DHT22;47835;52.778;5.956;2024-03-22T07:08:26;10.40;99.90
61896;DHT22;47835;52.778;5.956;2024-03-22T07:10:51;10.40;99.90
61896;DHT22;47835;52.778;5.956;2024-03-22T07:13:19;10.40;99.90
61896;DHT22;47835;52.778;5.956;2024-03-22T07:15:48;10.40;99.90
61896;DHT22;47835;52.778;5.956;2024-03-22T07:18:16;10.40;99.90
61896;DHT22;47835;52.778;5.956;2024-03-22T07:20:42;10.50;99.90
61896;DHT22;47835;52.778;5.956;2024-03-22T07:23:08;10.50;99.90
61896;DHT22;47835;52.778;5.956;2024-03-22T07:25:34;10.50;99.90
61896;DHT22;47835;52.778;5.956;2024-03-22T07:28:00;10.40;99.90
61896;DHT22;47835;52.778;5.956;2024-03-22T07:30:25;10.50;99.90
61896;DHT22;47835;52.778;5.956;2024-03-22T07:32:51;10.50;99.90
61896;DHT22;47835;52.778;5.956;2024-03-22T07:35:17;10.50;99.90
61896;DHT22;47835;52.778;5.956;2024-03-22T07:37:42;10.50;99.90
61896;DHT22;47835;52.778;5.956;2024-03-22T07:40:08;10.50;99.90
61896;DHT22;47835;52.778;5.956;2024-03-22T07:42:34;10.60;99.90
61896;DHT22;47835;52.778;5.956;2024-03-22T07:44:59;10.50;99.90
61896;DHT22;47835;52.778;5.956;2024-03-22T07:47:28;10.50;99.90
61896;DHT22;47835;52.778;5.956;2024-03-22T07:49:54;10.70;99.90
61896;DHT22;47835;52.778;5.956;2024-03-22T07:52:19;10.60;99.90
61896;DHT22;47835;52.778;5.956;2024-03-22T07:54:45;10.60;99.90
61896;DHT22;47835;52.778;5.956;2024-03-22T07:57:11;10.60;99.90
61896;DHT22;47835;52.778;5.956;2024-03-22T07:59:36;10.60;99.90
61896;DHT22;47835;52.778;5.956;2024-03-22T08:02:02;10.60;99.90
61896;DHT22;47835;52.778;5.956;2024-03-22T08:04:28;10.50;99.90
61896;DHT22;47835;52.778;5.956;2024-03-22T08:06:54;10.60;99.90
61896;DHT22;47835;52.778;5.956;2024-03-22T08:09:20;10.50;99.90
61896;DHT22;47835;52.778;5.956;2024-03-22T08:11:45;10.60;99.90
61896;DHT22;47835;52.778;5.956;2024-03-22T08:14:11;10.50;99.90
61896;DHT22;47835;52.778;5.956;2024-03-22T08:16:37;10.50;99.90
61896;DHT22;47835;52.778;5.956;2024-03-22T08:19:02;10.40;99.90
61896;DHT22;47835;52.778;5.956;2024-03-22T08:21:28;10.40;99.90
61896;DHT22;47835;52.778;5.956;2024-03-22T08:23:55;10.40;99.90
61896;DHT22;47835;52.778;5.956;2024-03-22T08:26:20;10.40;99.90
61896;DHT22;47835;52.778;5.956;2024-03-22T08:28:47;10.30;99.90
61896;DHT22;47835;52.778;5.956;2024-03-22T08:31:13;10.20;99.90
61896;DHT22;47835;52.778;5.956;2024-03-22T08:33:38;10.30;99.90
61896;DHT22;47835;52.778;5.956;2024-03-22T08:36:04;10.20;99.90
61896;DHT22;47835;52.778;5.956;2024-03-22T08:38:30;10.10;99.90
61896;DHT22;47835;52.778;5.956;2024-03-22T08:40:55;10.20;99.90
61896;DHT22;47835;52.778;5.956;2024-03-22T08:43:21;10.10;99.90
61896;DHT22;47835;52.778;5.956;2024-03-22T08:45:55;10.10;99.90
61896;DHT22;47835;52.778;5.956;2024-03-22T08:48:21;10.00;99.90
61896;DHT22;47835;52.778;5.956;2024-03-22T08:50:47;10.00;99.90
61896;DHT22;47835;52.778;5.956;2024-03-22T08:53:12;10.00;99.90
61896;DHT22;47835;52.778;5.956;2024-03-22T08:55:38;10.00;99.90
61896;DHT22;47835;52.778;5.956;2024-03-22T08:58:04;10.00;99.90
61896;DHT22;47835;52.778;5.956;2024-03-22T09:00:30;10.00;99.90
61896;DHT22;47835;52.778;5.956;2024-03-22T09:02:55;10.00;99.90
61896;DHT22;47835;52.778;5.956;2024-03-22T09:05:21;10.10;99.90
61896;DHT22;47835;52.778;5.956;2024-03-22T09:07:47;10.00;99.90
61896;DHT22;47835;52.778;5.956;2024-03-22T09:10:13;10.00;99.90
61896;DHT22;47835;52.778;5.956;2024-03-22T09:12:39;10.10;99.90
61896;DHT22;47835;52.778;5.956;2024-03-22T09:15:06;10.00;99.90
61896;DHT22;47835;52.778;5.956;2024-03-22T09:17:32;10.00;99.90
61896;DHT22;47835;52.778;5.956;2024-03-22T09:19:58;10.00;99.90
61896;DHT22;47835;52.778;5.956;2024-03-22T09:22:24;10.00;99.90
61896;DHT22;47835;52.778;5.956;2024-03-22T09:24:50;10.10;99.90
61896;DHT22;47835;52.778;5.956;2024-03-22T09:27:15;10.10;99.90
61896;DHT22;47835;52.778;5.956;2024-03-22T09:29:41;10.00;99.90
61896;DHT22;47835;52.778;5.956;2024-03-22T09:32:09;10.10;99.90
61896;DHT22;47835;52.778;5.956;2024-03-22T09:34:34;10.10;99.90
61896;DHT22;47835;52.778;5.956;2024-03-22T09:37:00;10.10;99.90
61896;DHT22;47835;52.778;5.956;2024-03-22T09:39:26;10.10;99.90
61896;DHT22;47835;52.778;5.956;2024-03-22T09:41:52;10.10;99.90
61896;DHT22;47835;52.778;5.956;2024-03-22T09:44:19;10.10;99.90
61896;DHT22;47835;52.778;5.956;2024-03-22T09:46:46;10.00;99.90
61896;DHT22;47835;52.778;5.956;2024-03-22T09:49:13;10.10;99.90
61896;DHT22;47835;52.778;5.956;2024-03-22T09:51:39;10.10;99.90
61896;DHT22;47835;52.778;5.956;2024-03-22T09:54:07;10.10;99.90
61896;DHT22;47835;52.778;5.956;2024-03-22T09:56:34;10.10;99.90
61896;DHT22;47835;52.778;5.956;2024-03-22T09:59:00;10.10;99.90
61896;DHT22;47835;52.778;5.956;2024-03-22T10:01:26;10.10;99.90
61896;DHT22;47835;52.778;5.956;2024-03-22T10:03:52;10.10;99.90
61896;DHT22;47835;52.778;5.956;2024-03-22T10:06:18;10.10;99.90
61896;DHT22;47835;52.778;5.956;2024-03-22T10:08:44;10.10;99.90
61896;DHT22;47835;52.778;5.956;2024-03-22T10:11:10;10.10;99.90
61896;DHT22;47835;52.778;5.956;2024-03-22T10:13:36;10.20;99.90
61896;DHT22;47835;52.778;5.956;2024-03-22T10:16:02;10.20;99.90
61896;DHT22;47835;52.778;5.956;2024-03-22T10:18:28;10.20;99.90
61896;DHT22;47835;52.778;5.956;2024-03-22T10:23:26;10.10;99.90
61896;DHT22;47835;52.778;5.956;2024-03-22T10:25:52;10.20;99.90
61896;DHT22;47835;52.778;5.956;2024-03-22T10:28:17;10.20;99.90
61896;DHT22;47835;52.778;5.956;2024-03-22T10:30:44;10.20;99.90
61896;DHT22;47835;52.778;5.956;2024-03-22T10:33:13;10.10;99.90
61896;DHT22;47835;52.778;5.956;2024-03-22T10:35:40;10.10;99.90
61896;DHT22;47835;52.778;5.956;2024-03-22T10:38:07;10.10;99.90
61896;DHT22;47835;52.778;5.956;2024-03-22T10:40:34;10.10;99.90
61896;DHT22;47835;52.778;5.956;2024-03-22T10:43:00;10.10;99.90
61896;DHT22;47835;52.778;5.956;2024-03-22T10:45:29;10.10;99.90
61896;DHT22;47835;52.778;5.956;2024-03-22T10:47:55;10.20;99.90
61896;DHT22;47835;52.778;5.956;2024-03-22T10:50:22;10.10;99.90
61896;DHT22;47835;52.778;5.956;2024-03-22T10:52:54;10.10;99.90
61896;DHT22;47835;52.778;5.956;2024-03-22T10:55:22;10.10;99.90
61896;DHT22;47835;52.778;5.956;2024-03-22T10:57:50;10.20;99.90
61896;DHT22;47835;52.778;5.956;2024-03-22T11:00:17;10.20;99.90
61896;DHT22;47835;52.778;5.956;2024-03-22T11:02:53;10.20;99.90
61896;DHT22;47835;52.778;5.956;2024-03-22T11:05:19;10.20;99.90
61896;DHT22;47835;52.778;5.956;2024-03-22T11:07:45;10.20;99.90
61896;DHT22;47835;52.778;5.956;2024-03-22T11:10:14;10.30;99.90
61896;DHT22;47835;52.778;5.956;2024-03-22T11:12:42;10.30;99.90
61896;DHT22;47835;52.778;5.956;2024-03-22T11:15:11;10.30;99.90
61896;DHT22;47835;52.778;5.956;2024-03-22T11:17:37;10.40;99.90
61896;DHT22;47835;52.778;5.956;2024-03-22T11:20:04;10.40;99.90
61896;DHT22;47835;52.778;5.956;2024-03-22T11:22:31;10.40;99.90
61896;DHT22;47835;52.778;5.956;2024-03-22T11:24:57;10.30;99.90
61896;DHT22;47835;52.778;5.956;2024-03-22T11:27:22;10.30;99.90
61896;DHT22;47835;52.778;5.956;2024-03-22T11:29:48;10.20;99.90
61896;DHT22;47835;52.778;5.956;2024-03-22T11:32:16;10.30;99.90
61896;DHT22;47835;52.778;5.956;2024-03-22T11:34:42;10.30;99.90
61896;DHT22;47835;52.778;5.956;2024-03-22T11:37:09;10.40;99.90
61896;DHT22;47835;52.778;5.956;2024-03-22T11:39:39;10.40;99.90
61896;DHT22;47835;52.778;5.956;2024-03-22T11:42:05;10.20;99.90
61896;DHT22;47835;52.778;5.956;2024-03-22T11:44:33;10.20;99.90
61896;DHT22;47835;52.778;5.956;2024-03-22T11:47:00;10.30;99.90
61896;DHT22;47835;52.778;5.956;2024-03-22T11:49:26;10.20;99.90
61896;DHT22;47835;52.778;5.956;2024-03-22T11:51:52;10.30;99.90
61896;DHT22;47835;52.778;5.956;2024-03-22T11:54:20;10.10;99.90
61896;DHT22;47835;52.778;5.956;2024-03-22T11:56:46;10.10;99.90
61896;DHT22;47835;52.778;5.956;2024-03-22T11:59:12;10.10;99.90
61896;DHT22;47835;52.778;5.956;2024-03-22T12:01:38;10.00;99.90
61896;DHT22;47835;52.778;5.956;2024-03-22T12:04:04;10.00;99.90
61896;DHT22;47835;52.778;5.956;2024-03-22T12:06:30;10.00;99.90
61896;DHT22;47835;52.778;5.956;2024-03-22T12:08:55;9.90;99.90
61896;DHT22;47835;52.778;5.956;2024-03-22T12:11:21;9.90;99.90
61896;DHT22;47835;52.778;5.956;2024-03-22T12:13:47;9.90;99.90
61896;DHT22;47835;52.778;5.956;2024-03-22T12:16:12;9.80;99.90
61896;DHT22;47835;52.778;5.956;2024-03-22T12:18:38;9.70;99.90
61896;DHT22;47835;52.778;5.956;2024-03-22T12:21:04;9.80;99.90
61896;DHT22;47835;52.778;5.956;2024-03-22T12:23:29;9.70;99.90
61896;DHT22;47835;52.778;5.956;2024-03-22T12:25:55;9.70;99.90
61896;DHT22;47835;52.778;5.956;2024-03-22T12:28:21;9.60;99.90
61896;DHT22;47835;52.778;5.956;2024-03-22T12:30:47;9.60;99.90
61896;DHT22;47835;52.778;5.956;2024-03-22T12:33:13;9.70;99.90
61896;DHT22;47835;52.778;5.956;2024-03-22T12:35:42;9.70;99.90
61896;DHT22;47835;52.778;5.956;2024-03-22T12:38:08;9.80;99.90
61896;DHT22;47835;52.778;5.956;2024-03-22T12:40:39;9.70;99.90
61896;DHT22;47835;52.778;5.956;2024-03-22T12:43:05;9.70;99.90
61896;DHT22;47835;52.778;5.956;2024-03-22T12:45:31;9.80;99.90
61896;DHT22;47835;52.778;5.956;2024-03-22T12:47:58;9.80;99.90
61896;DHT22;47835;52.778;5.956;2024-03-22T12:50:24;9.80;99.90
61896;DHT22;47835;52.778;5.956;2024-03-22T12:52:50;9.90;99.90
61896;DHT22;47835;52.778;5.956;2024-03-22T12:55:15;9.90;99.90
61896;DHT22;47835;52.778;5.956;2024-03-22T12:57:41;9.90;99.90
61896;DHT22;47835;52.778;5.956;2024-03-22T13:00:08;9.90;99.90
61896;DHT22;47835;52.778;5.956;2024-03-22T13:02:41;9.80;99.90
61896;DHT22;47835;52.778;5.956;2024-03-22T13:05:07;9.80;99.90
61896;DHT22;47835;52.778;5.956;2024-03-22T13:07:34;9.80;99.90
61896;DHT22;47835;52.778;5.956;2024-03-22T13:09:59;9.80;99.90
61896;DHT22;47835;52.778;5.956;2024-03-22T13:12:28;9.80;99.90
61896;DHT22;47835;52.778;5.956;2024-03-22T13:14:57;9.80;99.90
61896;DHT22;47835;52.778;5.956;2024-03-22T13:17:22;9.90;99.90
61896;DHT22;47835;52.778;5.956;2024-03-22T13:19:49;9.90;99.90
61896;DHT22;47835;52.778;5.956;2024-03-22T13:22:14;9.90;99.90
61896;DHT22;47835;52.778;5.956;2024-03-22T13:24:47;10.00;99.90
61896;DHT22;47835;52.778;5.956;2024-03-22T13:27:13;10.00;99.90
61896;DHT22;47835;52.778;5.956;2024-03-22T13:29:39;10.10;99.90
61896;DHT22;47835;52.778;5.956;2024-03-22T13:32:05;10.00;99.90
61896;DHT22;47835;52.778;5.956;2024-03-22T13:34:37;10.10;99.90
61896;DHT22;47835;52.778;5.956;2024-03-22T13:37:03;10.10;99.90
61896;DHT22;47835;52.778;5.956;2024-03-22T13:39:29;10.10;99.90
61896;DHT22;47835;52.778;5.956;2024-03-22T13:41:56;10.10;99.90
61896;DHT22;47835;52.778;5.956;2024-03-22T13:44:21;10.10;99.90
61896;DHT22;47835;52.778;5.956;2024-03-22T13:46:52;10.20;99.90
61896;DHT22;47835;52.778;5.956;2024-03-22T13:49:19;10.20;99.90
61896;DHT22;47835;52.778;5.956;2024-03-22T13:51:46;10.20;99.90
61896;DHT22;47835;52.778;5.956;2024-03-22T13:54:13;10.20;99.90
61896;DHT22;47835;52.778;5.956;2024-03-22T13:56:38;10.20;99.90
61896;DHT22;47835;52.778;5.956;2024-03-22T13:59:05;10.20;99.90
61896;DHT22;47835;52.778;5.956;2024-03-22T14:01:32;10.20;99.90
61896;DHT22;47835;52.778;5.956;2024-03-22T14:03:57;10.10;99.90
61896;DHT22;47835;52.778;5.956;2024-03-22T14:06:23;10.20;99.90
61896;DHT22;47835;52.778;5.956;2024-03-22T14:08:49;10.20;99.90
61896;DHT22;47835;52.778;5.956;2024-03-22T14:11:14;10.20;99.90
61896;DHT22;47835;52.778;5.956;2024-03-22T14:13:40;10.20;99.90
61896;DHT22;47835;52.778;5.956;2024-03-22T14:16:05;10.20;99.90
61896;DHT22;47835;52.778;5.956;2024-03-22T14:18:33;10.10;99.90
61896;DHT22;47835;52.778;5.956;2024-03-22T14:21:01;10.10;99.90
61896;DHT22;47835;52.778;5.956;2024-03-22T14:23:27;10.20;99.90
61896;DHT22;47835;52.778;5.956;2024-03-22T14:25:55;10.30;99.90
61896;DHT22;47835;52.778;5.956;2024-03-22T14:28:20;10.30;99.90
61896;DHT22;47835;52.778;5.956;2024-03-22T14:30:47;10.30;99.90
61896;DHT22;47835;52.778;5.956;2024-03-22T14:33:12;10.20;99.90
61896;DHT22;47835;52.778;5.956;2024-03-22T14:35:38;10.20;99.90
61896;DHT22;47835;52.778;5.956;2024-03-22T14:38:04;10.20;99.90
61896;DHT22;47835;52.778;5.956;2024-03-22T14:40:29;10.20;99.90
61896;DHT22;47835;52.778;5.956;2024-03-22T14:42:57;10.20;99.90
61896;DHT22;47835;52.778;5.956;2024-03-22T14:45:22;10.10;99.90
61896;DHT22;47835;52.778;5.956;2024-03-22T14:47:48;10.00;99.90
61896;DHT22;47835;52.778;5.956;2024-03-22T14:50:13;9.90;99.90
61896;DHT22;47835;52.778;5.956;2024-03-22T14:52:39;9.90;99.90
61896;DHT22;47835;52.778;5.956;2024-03-22T14:55:05;9.90;99.90
61896;DHT22;47835;52.778;5.956;2024-03-22T14:57:31;10.00;99.90
61896;DHT22;47835;52.778;5.956;2024-03-22T14:59:57;9.90;99.90
61896;DHT22;47835;52.778;5.956;2024-03-22T15:02:25;10.00;99.90
61896;DHT22;47835;52.778;5.956;2024-03-22T15:04:51;10.00;99.90
61896;DHT22;47835;52.778;5.956;2024-03-22T15:07:16;9.90;99.90
61896;DHT22;47835;52.778;5.956;2024-03-22T15:09:42;9.90;99.90
61896;DHT22;47835;52.778;5.956;2024-03-22T15:12:08;9.90;99.90
61896;DHT22;47835;52.778;5.956;2024-03-22T15:14:35;9.90;99.90
61896;DHT22;47835;52.778;5.956;2024-03-22T15:17:00;9.90;99.90
61896;DHT22;47835;52.778;5.956;2024-03-22T15:19:26;9.90;99.90
61896;DHT22;47835;52.778;5.956;2024-03-22T15:21:51;9.90;99.90
61896;DHT22;47835;52.778;5.956;2024-03-22T15:24:17;9.90;99.90
61896;DHT22;47835;52.778;5.956;2024-03-22T15:26:43;9.80;99.90
61896;DHT22;47835;52.778;5.956;2024-03-22T15:29:09;9.80;99.90